createdAt,value
2022-11-23T00:01:45.840Z,26.13
2022-11-23T00:04:15.337Z,26.07
2022-11-23T00:06:43.753Z,27.10
2022-11-23T00:09:13.404Z,28.13
2022-11-23T00:11:41.496Z,28.47
2022-11-23T00:14:09.612Z,29.37
2022-11-23T00:16:38.393Z,28.17
2022-11-23T00:19:06.781Z,28.23
2022-11-23T00:21:36.794Z,27.63
2022-11-23T00:24:10.531Z,28.90
2022-11-23T00:26:38.794Z,28.07
2022-11-23T00:29:06.732Z,28.90
2022-11-23T00:31:35.814Z,27.33
2022-11-23T00:34:08.309Z,28.33
2022-11-23T00:36:37.674Z,26.93
2022-11-23T00:39:05.804Z,27.90
2022-11-23T00:41:33.877Z,28.23
2022-11-23T00:44:03.822Z,27.70
2022-11-23T00:46:32.788Z,28.10
2022-11-23T00:49:01.856Z,27.73
2022-11-23T00:51:34.812Z,28.37
2022-11-23T00:54:05.673Z,27.23
2022-11-23T00:56:36.829Z,28.20
2022-11-23T00:59:05.996Z,29.10
2022-11-23T01:01:37.318Z,28.57
2022-11-23T01:04:12.367Z,28.63
2022-11-23T01:06:42.847Z,29.03
2022-11-23T01:09:16.086Z,28.73
2022-11-23T01:11:51.791Z,27.80
2022-11-23T01:14:20.954Z,27.33
2022-11-23T01:16:49.812Z,28.37
2022-11-23T01:19:19.913Z,27.53
2022-11-23T01:21:51.593Z,29.37
2022-11-23T01:24:22.809Z,28.07
2022-11-23T01:26:56.400Z,27.87
2022-11-23T01:29:26.499Z,28.57
2022-11-23T01:31:54.809Z,27.37
2022-11-23T01:34:23.855Z,28.60
2022-11-23T01:36:52.836Z,27.30
2022-11-23T01:39:26.031Z,28.33
2022-11-23T01:41:54.436Z,27.43
2022-11-23T01:44:32.269Z,28.70
2022-11-23T01:47:05.260Z,29.67
2022-11-23T01:49:41.431Z,30.03
2022-11-23T01:52:13.043Z,28.47
2022-11-23T01:54:49.124Z,27.83
2022-11-23T01:57:22.017Z,29.33
2022-11-23T01:59:52.127Z,29.73
2022-11-23T02:02:25.524Z,29.43
2022-11-23T02:04:56.797Z,28.67
2022-11-23T02:07:26.793Z,29.83
2022-11-23T02:09:56.797Z,31.40
2022-11-23T02:12:25.720Z,30.40
2022-11-23T02:14:54.584Z,31.00
2022-11-23T02:17:23.045Z,30.87
2022-11-23T02:20:02.659Z,29.30
2022-11-23T02:22:34.817Z,29.90
2022-11-23T02:25:10.410Z,29.67
2022-11-23T02:27:46.604Z,30.93
2022-11-23T02:30:18.741Z,29.23
2022-11-23T02:32:46.779Z,29.63
2022-11-23T02:35:15.747Z,28.17
2022-11-23T02:37:45.501Z,26.20
2022-11-23T02:40:23.385Z,27.80
2022-11-23T02:42:54.850Z,28.53
2022-11-23T02:45:29.912Z,26.77
2022-11-23T02:48:01.456Z,25.37
2022-11-23T02:50:33.425Z,25.63
2022-11-23T02:53:02.396Z,26.93
2022-11-23T02:55:33.253Z,27.27
2022-11-23T02:58:04.870Z,24.27
2022-11-23T03:00:37.960Z,28.57
2022-11-23T03:03:06.122Z,23.70
2022-11-23T03:05:35.744Z,23.23
2022-11-23T03:08:10.912Z,24.03
2022-11-23T03:10:41.878Z,23.70
2022-11-23T03:13:11.916Z,24.27
2022-11-23T03:15:41.732Z,23.93
2022-11-23T03:18:12.410Z,23.63
2022-11-23T03:20:40.954Z,24.00
2022-11-23T03:23:09.119Z,23.87
2022-11-23T03:25:37.099Z,23.90
2022-11-23T03:28:07.858Z,24.47
2022-11-23T03:30:38.034Z,25.67
2022-11-23T03:33:07.855Z,24.90
2022-11-23T03:35:38.647Z,23.43
2022-11-23T03:38:22.853Z,24.73
2022-11-23T03:40:51.716Z,27.10
2022-11-23T03:43:24.910Z,25.33
2022-11-23T03:45:54.854Z,25.47
2022-11-23T03:48:28.194Z,25.63
2022-11-23T03:50:56.321Z,26.43
2022-11-23T03:53:24.855Z,25.60
2022-11-23T03:55:55.505Z,23.90
2022-11-23T03:58:25.854Z,25.53
2022-11-23T04:00:56.761Z,24.03
2022-11-23T04:03:26.482Z,21.50
2022-11-23T04:06:15.835Z,20.00
2022-11-23T04:09:16.548Z,20.97
2022-11-23T04:12:13.239Z,19.97
2022-11-23T04:14:41.517Z,19.83
2022-11-23T04:17:11.925Z,19.77
2022-11-23T04:19:40.852Z,20.83
2022-11-23T04:22:12.882Z,21.50
2022-11-23T04:24:43.683Z,21.00
2022-11-23T04:27:11.896Z,21.27
2022-11-23T04:29:40.888Z,20.30
2022-11-23T04:32:10.352Z,21.83
2022-11-23T04:34:42.960Z,21.43
2022-11-23T04:37:13.891Z,21.67
2022-11-23T04:39:44.081Z,21.23
2022-11-23T04:42:20.107Z,21.57
2022-11-23T04:44:58.431Z,20.87
2022-11-23T04:47:27.955Z,21.10
2022-11-23T04:50:04.355Z,19.93
2022-11-23T04:52:32.957Z,20.43
2022-11-23T04:55:01.094Z,17.67
2022-11-23T04:57:32.186Z,19.00
2022-11-23T05:00:00.891Z,18.73
2022-11-23T05:02:33.337Z,18.33
2022-11-23T05:05:12.831Z,18.00
2022-11-23T05:07:41.557Z,17.37
2022-11-23T05:10:11.309Z,16.60
2022-11-23T05:12:40.595Z,18.63
2022-11-23T05:15:13.323Z,19.03
2022-11-23T05:17:47.120Z,18.67
2022-11-23T05:20:25.286Z,17.37
2022-11-23T05:22:53.551Z,17.70
2022-11-23T05:25:25.260Z,18.17
2022-11-23T05:28:11.472Z,17.33
2022-11-23T05:30:49.391Z,17.60
2022-11-23T05:33:21.475Z,16.13
2022-11-23T05:35:49.801Z,17.53
2022-11-23T05:38:22.879Z,16.57
2022-11-23T05:40:52.144Z,18.50
2022-11-23T05:43:20.206Z,16.77
2022-11-23T05:45:49.900Z,16.73
2022-11-23T05:48:20.622Z,16.80
2022-11-23T05:51:03.604Z,16.67
2022-11-23T05:53:37.846Z,17.13
2022-11-23T05:56:22.577Z,16.60
2022-11-23T05:59:06.580Z,16.07
2022-11-23T06:01:36.995Z,15.57
2022-11-23T06:04:09.451Z,15.20
2022-11-23T06:06:42.382Z,16.13
2022-11-23T06:09:11.793Z,16.70
2022-11-23T06:11:48.313Z,15.67
2022-11-23T06:14:24.407Z,15.77
2022-11-23T06:16:54.566Z,15.93
2022-11-23T06:19:40.816Z,19.00
2022-11-23T06:22:09.703Z,16.53
2022-11-23T06:24:44.877Z,15.30
2022-11-23T06:27:39.712Z,13.47
2022-11-23T06:30:19.649Z,15.13
2022-11-23T06:32:49.307Z,16.70
2022-11-23T06:35:19.601Z,16.10
2022-11-23T06:37:54.748Z,17.67
2022-11-23T06:40:23.880Z,23.37
2022-11-23T06:43:01.532Z,19.40
2022-11-23T06:45:39.901Z,16.30
2022-11-23T06:48:11.929Z,14.80
2022-11-23T06:50:46.896Z,15.50
2022-11-23T06:53:16.806Z,15.40
2022-11-23T06:55:49.938Z,15.07
2022-11-23T06:58:24.333Z,15.10
2022-11-23T07:00:54.690Z,15.73
2022-11-23T07:03:26.908Z,15.90
2022-11-23T07:06:06.120Z,15.87
2022-11-23T07:08:35.328Z,17.90
2022-11-23T07:11:16.652Z,16.93
2022-11-23T07:13:48.412Z,16.27
2022-11-23T07:16:18.707Z,16.83
2022-11-23T07:18:48.078Z,16.77
2022-11-23T07:21:19.849Z,17.00
2022-11-23T07:23:48.801Z,16.47
2022-11-23T07:26:17.227Z,15.97
2022-11-23T07:28:47.450Z,15.60
2022-11-23T07:31:16.938Z,15.83
2022-11-23T07:33:46.212Z,18.53
2022-11-23T07:36:15.817Z,18.77
2022-11-23T07:38:47.977Z,18.93
2022-11-23T07:41:19.017Z,20.10
2022-11-23T07:43:57.975Z,16.90
2022-11-23T07:46:26.225Z,16.37
2022-11-23T07:49:00.084Z,16.13
2022-11-23T07:51:31.430Z,16.60
2022-11-23T07:54:01.953Z,16.07
2022-11-23T07:56:30.504Z,17.33
2022-11-23T07:58:58.920Z,16.50
2022-11-23T08:01:31.619Z,17.77
2022-11-23T08:03:59.975Z,16.87
2022-11-23T08:06:28.061Z,17.73
2022-11-23T08:08:56.898Z,18.30
2022-11-23T08:11:27.047Z,19.60
2022-11-23T08:13:57.625Z,17.63
2022-11-23T08:16:27.567Z,18.87
2022-11-23T08:18:55.590Z,17.70
2022-11-23T08:21:23.963Z,17.03
2022-11-23T08:23:53.001Z,16.63
2022-11-23T08:26:21.577Z,16.03
2022-11-23T08:28:50.861Z,16.10
2022-11-23T08:31:20.866Z,17.50
2022-11-23T08:33:50.010Z,16.90
2022-11-23T08:36:18.139Z,16.10
2022-11-23T08:38:46.989Z,18.93
2022-11-23T08:41:14.987Z,18.20
2022-11-23T08:43:44.003Z,17.77
2022-11-23T08:46:13.426Z,18.67
2022-11-23T08:48:43.999Z,16.73
2022-11-23T08:51:12.969Z,17.10
2022-11-23T08:53:41.937Z,17.10
2022-11-23T08:56:11.979Z,16.97
2022-11-23T08:58:41.554Z,16.17
2022-11-23T09:01:16.449Z,17.43
2022-11-23T09:03:44.941Z,17.17
2022-11-23T09:06:19.981Z,16.67
2022-11-23T09:08:48.858Z,16.70
2022-11-23T09:11:18.662Z,17.47
2022-11-23T09:13:46.950Z,18.20
2022-11-23T09:16:17.596Z,18.13
2022-11-23T09:18:50.154Z,19.60
2022-11-23T09:21:18.871Z,15.53
2022-11-23T09:23:46.978Z,15.33
2022-11-23T09:26:15.466Z,13.87
2022-11-23T09:28:47.068Z,13.47
2022-11-23T09:31:16.430Z,14.53
2022-11-23T09:33:44.513Z,16.80
2022-11-23T09:36:12.613Z,16.93
2022-11-23T09:38:57.491Z,17.67
2022-11-23T09:42:00.049Z,18.27
2022-11-23T09:44:42.559Z,18.20
2022-11-23T09:47:29.188Z,18.47
2022-11-23T09:50:09.171Z,19.30
2022-11-23T09:52:41.954Z,16.07
2022-11-23T09:55:17.344Z,16.67
2022-11-23T09:57:48.255Z,17.83
2022-11-23T10:00:21.022Z,18.70
2022-11-23T10:02:50.865Z,19.63
2022-11-23T10:05:24.353Z,19.03
2022-11-23T10:08:05.952Z,18.97
2022-11-23T10:10:42.993Z,19.40
2022-11-23T10:13:34.028Z,18.30
2022-11-23T10:16:16.024Z,18.90
2022-11-23T10:18:57.998Z,18.23
2022-11-23T10:21:36.994Z,18.77
2022-11-23T10:24:19.308Z,19.43
2022-11-23T10:26:51.035Z,20.57
2022-11-23T10:29:26.741Z,21.53
2022-11-23T10:31:57.432Z,22.63
2022-11-23T10:34:40.278Z,23.83
2022-11-23T10:37:18.109Z,23.20
2022-11-23T10:39:46.127Z,23.13
2022-11-23T10:42:26.182Z,23.77
2022-11-23T10:44:56.512Z,22.27
2022-11-23T10:47:39.884Z,21.70
2022-11-23T10:50:33.525Z,22.13
2022-11-23T10:53:13.983Z,21.60
2022-11-23T10:55:50.871Z,21.90
2022-11-23T10:58:27.740Z,21.13
2022-11-23T11:01:07.682Z,21.87
2022-11-23T11:03:37.005Z,22.13
2022-11-23T11:06:08.948Z,20.00
2022-11-23T11:08:51.386Z,19.57
2022-11-23T11:11:30.572Z,19.67
2022-11-23T11:14:07.942Z,19.53
2022-11-23T11:16:39.028Z,20.00
2022-11-23T11:19:24.129Z,17.87
2022-11-23T11:21:55.892Z,19.43
2022-11-23T11:24:30.176Z,20.87
2022-11-23T11:27:01.888Z,19.57
2022-11-23T11:29:38.611Z,19.63
2022-11-23T11:32:19.600Z,19.80
2022-11-23T11:34:53.043Z,18.27
2022-11-23T11:37:35.014Z,18.03
2022-11-23T11:40:10.881Z,19.33
2022-11-23T11:42:43.875Z,18.23
2022-11-23T11:45:18.120Z,20.07
2022-11-23T11:47:52.010Z,18.97
2022-11-23T11:50:31.339Z,20.87
2022-11-23T11:53:07.276Z,20.87
2022-11-23T11:55:50.003Z,19.90
2022-11-23T11:58:20.495Z,19.13
2022-11-23T12:00:51.006Z,18.77
2022-11-23T12:03:28.420Z,18.30
2022-11-23T12:06:06.077Z,18.30
2022-11-23T12:08:44.992Z,17.50
2022-11-23T12:11:15.052Z,19.50
2022-11-23T12:13:46.998Z,19.50
2022-11-23T12:16:25.188Z,20.50
2022-11-23T12:19:07.088Z,20.47
2022-11-23T12:22:01.123Z,18.50
2022-11-23T12:24:45.343Z,19.13
2022-11-23T12:27:28.017Z,19.23
2022-11-23T12:30:19.133Z,19.73
2022-11-23T12:33:03.209Z,19.33
2022-11-23T12:35:57.136Z,18.97
2022-11-23T12:38:32.052Z,20.27
2022-11-23T12:41:36.468Z,20.10
2022-11-23T12:44:26.692Z,19.67
2022-11-23T12:47:07.530Z,20.67
2022-11-23T12:49:45.275Z,22.23
2022-11-23T12:52:35.997Z,21.53
2022-11-23T12:55:19.472Z,20.97
2022-11-23T12:57:56.029Z,21.73
2022-11-23T13:00:25.120Z,21.63
2022-11-23T13:03:23.071Z,20.77
2022-11-23T13:06:21.051Z,28.40
2022-11-23T13:09:16.450Z,21.40
2022-11-23T13:11:59.318Z,20.67
2022-11-23T13:14:39.028Z,21.40
2022-11-23T13:17:22.405Z,21.47
2022-11-23T13:20:16.048Z,20.33
2022-11-23T13:22:45.670Z,20.47
2022-11-23T13:25:25.060Z,20.90
2022-11-23T13:28:02.048Z,22.47
2022-11-23T13:31:14.183Z,22.73
2022-11-23T13:33:40.534Z,23.53
2022-11-23T13:36:19.699Z,22.83
2022-11-23T13:38:49.136Z,22.37
2022-11-23T13:41:53.659Z,22.13
2022-11-23T13:44:27.051Z,22.50
2022-11-23T13:47:06.042Z,22.37
2022-11-23T13:49:39.064Z,23.03
2022-11-23T13:52:20.339Z,24.10
2022-11-23T13:55:07.152Z,23.10
2022-11-23T13:57:38.141Z,23.00
2022-11-23T14:00:49.066Z,23.07
2022-11-23T14:03:56.941Z,23.93
2022-11-23T14:06:39.547Z,22.43
2022-11-23T14:09:15.352Z,23.53
2022-11-23T14:12:03.096Z,22.10
2022-11-23T14:14:36.868Z,40.23
2022-11-23T14:17:46.094Z,23.27
2022-11-23T14:20:47.578Z,22.33
2022-11-23T14:23:43.073Z,22.13
2022-11-23T14:26:22.526Z,22.77
2022-11-23T14:29:08.653Z,22.97
2022-11-23T14:31:53.190Z,23.63
2022-11-23T14:34:31.724Z,23.20
2022-11-23T14:37:09.145Z,25.77
2022-11-23T14:40:03.728Z,24.60
2022-11-23T14:42:35.561Z,23.33
2022-11-23T14:47:59.074Z,23.40
2022-11-23T14:50:30.135Z,25.10
2022-11-23T14:53:02.148Z,25.07
2022-11-23T14:55:32.980Z,23.70
2022-11-23T14:58:05.307Z,25.33
2022-11-23T15:00:38.141Z,26.60
2022-11-23T15:03:42.519Z,26.53
2022-11-23T15:06:10.191Z,26.43
2022-11-23T15:08:45.703Z,25.30
2022-11-23T15:11:21.231Z,23.60
2022-11-23T15:13:51.686Z,24.50
2022-11-23T15:16:22.996Z,24.33
2022-11-23T15:18:54.391Z,23.77
2022-11-23T15:21:27.582Z,25.60
2022-11-23T15:24:01.802Z,24.40
2022-11-23T15:26:47.837Z,26.57
2022-11-23T15:29:34.597Z,26.67
2022-11-23T15:34:58.246Z,30.13
2022-11-23T15:37:30.458Z,30.13
2022-11-23T15:40:01.929Z,29.77
2022-11-23T15:42:31.485Z,31.13
2022-11-23T15:44:59.826Z,30.17
2022-11-23T15:47:31.111Z,28.83
2022-11-23T15:50:03.615Z,29.43
2022-11-23T15:52:38.511Z,28.10
2022-11-23T15:55:10.574Z,29.60
2022-11-23T15:57:41.174Z,29.43
2022-11-23T16:00:22.390Z,30.80
2022-11-23T16:02:54.355Z,28.97
2022-11-23T16:05:24.345Z,27.90
2022-11-23T16:07:56.302Z,29.27
2022-11-23T16:10:26.204Z,29.00
2022-11-23T16:12:56.876Z,27.60
2022-11-23T16:15:42.333Z,26.97
2022-11-23T16:18:22.575Z,28.03
2022-11-23T16:20:53.841Z,29.33
2022-11-23T16:23:24.525Z,27.83
2022-11-23T16:25:59.496Z,28.10
2022-11-23T16:28:31.819Z,27.13
2022-11-23T16:31:01.936Z,27.37
2022-11-23T16:33:34.109Z,25.33
2022-11-23T16:36:02.250Z,26.13
2022-11-23T16:38:30.885Z,26.33
2022-11-23T16:40:58.908Z,25.07
2022-11-23T16:43:30.768Z,24.77
2022-11-23T16:46:02.686Z,24.53
2022-11-23T16:48:42.357Z,24.70
2022-11-23T16:51:14.380Z,24.50
2022-11-23T16:54:12.391Z,26.03
2022-11-23T16:56:35.333Z,23.97
2022-11-23T16:59:05.103Z,24.30
2022-11-23T17:01:36.037Z,24.30
2022-11-23T17:04:06.427Z,25.47
2022-11-23T17:06:34.419Z,25.63
2022-11-23T17:09:07.913Z,25.43
2022-11-23T17:11:40.234Z,26.33
2022-11-23T17:14:18.175Z,26.87
2022-11-23T17:16:50.151Z,25.97
2022-11-23T17:19:19.730Z,25.60
2022-11-23T17:21:49.050Z,24.77
2022-11-23T17:24:17.905Z,24.43
2022-11-23T17:26:50.374Z,24.17
2022-11-23T17:29:21.101Z,23.77
2022-11-23T17:31:51.107Z,24.10
2022-11-23T17:34:19.236Z,24.57
2022-11-23T17:36:48.733Z,28.37
2022-11-23T17:39:21.019Z,25.53
2022-11-23T17:41:50.096Z,26.50
2022-11-23T17:44:19.552Z,31.33
2022-11-23T17:46:48.406Z,27.37
2022-11-23T17:49:20.067Z,25.80
2022-11-23T17:51:48.114Z,26.23
2022-11-23T17:54:17.102Z,25.40
2022-11-23T17:56:46.186Z,25.27
2022-11-23T17:59:14.126Z,24.07
2022-11-23T18:01:43.718Z,26.37
2022-11-23T18:04:14.553Z,24.43
2022-11-23T18:06:42.698Z,24.07
2022-11-23T18:09:12.414Z,24.17
2022-11-23T18:11:40.724Z,24.80
2022-11-23T18:14:08.907Z,28.90
2022-11-23T18:16:37.072Z,25.93
2022-11-23T18:19:06.544Z,25.33
2022-11-23T18:21:34.717Z,24.40
2022-11-23T18:24:04.851Z,26.13
2022-11-23T18:26:34.302Z,24.00
2022-11-23T18:29:02.787Z,25.20
2022-11-23T18:31:31.143Z,24.43
2022-11-23T18:33:59.234Z,25.47
2022-11-23T18:36:29.029Z,26.07
2022-11-23T18:38:57.943Z,25.33
2022-11-23T18:41:26.204Z,24.40
2022-11-23T18:43:54.550Z,23.43
2022-11-23T18:46:22.668Z,23.97
2022-11-23T18:48:51.540Z,26.63
2022-11-23T18:51:19.918Z,24.33
2022-11-23T18:53:50.944Z,23.07
2022-11-23T18:56:19.754Z,24.83
2022-11-23T18:58:48.068Z,23.43
2022-11-23T19:01:18.850Z,25.20
2022-11-23T19:03:48.364Z,24.17
2022-11-23T19:06:17.897Z,25.53
2022-11-23T19:08:47.637Z,26.03
2022-11-23T19:11:22.638Z,25.97
2022-11-23T19:13:52.438Z,26.07
2022-11-23T19:16:22.453Z,27.50
2022-11-23T19:18:56.153Z,28.23
2022-11-23T19:21:26.019Z,28.63
2022-11-23T19:23:55.576Z,27.83
2022-11-23T19:26:29.342Z,28.20
2022-11-23T19:28:59.481Z,27.57
2022-11-23T19:31:29.308Z,26.47
2022-11-23T19:33:58.545Z,29.57
2022-11-23T19:36:27.003Z,33.47
2022-11-23T19:38:57.321Z,29.33
2022-11-23T19:41:30.552Z,27.03
2022-11-23T19:44:04.345Z,26.20
2022-11-23T19:46:35.501Z,25.83
2022-11-23T19:49:04.783Z,25.20
2022-11-23T19:51:32.785Z,26.63
2022-11-23T19:54:01.723Z,26.20
2022-11-23T19:56:33.622Z,27.17
2022-11-23T19:59:03.605Z,27.97
2022-11-23T20:01:33.160Z,28.97
2022-11-23T20:04:08.691Z,28.17
2022-11-23T20:06:38.985Z,27.73
2022-11-23T20:09:08.789Z,27.80
2022-11-23T20:11:40.452Z,28.33
2022-11-23T20:14:11.993Z,25.77
2022-11-23T20:16:40.264Z,31.87
2022-11-23T20:19:09.997Z,40.20
2022-11-23T20:21:38.901Z,25.17
2022-11-23T20:24:10.045Z,23.57
2022-11-23T20:26:39.828Z,22.33
2022-11-23T20:29:08.592Z,22.40
2022-11-23T20:31:38.392Z,22.87
2022-11-23T20:34:08.879Z,23.13
2022-11-23T20:36:41.104Z,23.43
2022-11-23T20:39:11.927Z,27.07
2022-11-23T20:41:43.053Z,26.83
2022-11-23T20:44:16.868Z,26.40
2022-11-23T20:47:04.418Z,26.27
2022-11-23T20:49:33.103Z,25.30
2022-11-23T20:52:02.344Z,25.60
2022-11-23T20:54:34.092Z,25.13
2022-11-23T20:57:03.830Z,25.93
2022-11-23T20:59:33.006Z,24.10
2022-11-23T21:02:01.114Z,25.60
2022-11-23T21:04:29.337Z,26.83
2022-11-23T21:06:57.514Z,26.70
2022-11-23T21:09:29.183Z,44.70
2022-11-23T21:12:15.699Z,34.57
2022-11-23T21:14:46.196Z,27.63
2022-11-23T21:17:14.875Z,27.80
2022-11-23T21:19:44.300Z,27.50
2022-11-23T21:22:14.681Z,27.00
2022-11-23T21:24:42.836Z,27.93
2022-11-23T21:27:13.672Z,27.67
2022-11-23T21:29:46.249Z,27.17
2022-11-23T21:32:15.645Z,27.70
2022-11-23T21:34:44.152Z,26.50
2022-11-23T21:37:13.492Z,26.87
2022-11-23T21:39:43.220Z,27.33
2022-11-23T21:42:15.482Z,26.47
2022-11-23T21:44:43.736Z,25.77
2022-11-23T21:47:11.762Z,34.07
2022-11-23T21:49:42.297Z,30.90
2022-11-23T21:52:13.188Z,25.50
2022-11-23T21:54:48.764Z,21.13
2022-11-23T21:57:18.222Z,20.77
2022-11-23T21:59:46.302Z,20.23
2022-11-23T22:02:17.261Z,20.03
2022-11-23T22:04:46.837Z,20.03
2022-11-23T22:07:15.301Z,19.13
2022-11-23T22:09:44.178Z,19.67
2022-11-23T22:12:13.278Z,20.37
2022-11-23T22:14:41.290Z,19.37
2022-11-23T22:17:09.309Z,19.97
2022-11-23T22:19:39.469Z,20.07
2022-11-23T22:22:09.373Z,18.93
2022-11-23T22:24:38.276Z,20.73
2022-11-23T22:27:06.312Z,20.47
2022-11-23T22:29:37.956Z,22.73
2022-11-23T22:32:06.387Z,20.87
2022-11-23T22:34:35.857Z,22.13
2022-11-23T22:37:10.225Z,20.67
2022-11-23T22:39:44.253Z,20.47
2022-11-23T22:42:15.105Z,18.60
2022-11-23T22:44:43.123Z,19.17
2022-11-23T22:47:13.288Z,19.83
2022-11-23T22:49:43.462Z,20.23
2022-11-23T22:52:12.373Z,20.73
2022-11-23T22:54:40.402Z,21.57
2022-11-23T22:57:10.358Z,19.80
2022-11-23T22:59:41.292Z,19.67
2022-11-23T23:02:12.665Z,19.60
2022-11-23T23:04:40.716Z,18.63
2022-11-23T23:07:09.710Z,19.20
2022-11-23T23:09:38.536Z,19.63
2022-11-23T23:12:07.212Z,19.67
2022-11-23T23:14:40.241Z,18.47
2022-11-23T23:17:08.370Z,18.73
2022-11-23T23:19:36.996Z,18.60
2022-11-23T23:22:05.332Z,18.87
2022-11-23T23:24:34.674Z,18.67
2022-11-23T23:27:03.870Z,19.87
2022-11-23T23:29:34.178Z,20.87
2022-11-23T23:32:03.829Z,19.80
2022-11-23T23:34:32.280Z,19.30
2022-11-23T23:37:01.313Z,19.33
2022-11-23T23:39:30.552Z,20.30
2022-11-23T23:42:02.436Z,19.13
2022-11-23T23:44:30.677Z,20.17
2022-11-23T23:46:59.258Z,19.97
2022-11-23T23:49:31.529Z,20.13
2022-11-23T23:52:03.457Z,20.97
2022-11-23T23:54:32.838Z,21.40
2022-11-23T23:57:01.074Z,21.63
2022-11-23T23:59:29.212Z,21.97
